sensor_id;sensor_type;location;lat;lon;timestamp;temperature;humidity
15983;DHT22;14442;50.196;8.096;2023-03-21T00:00:55;24.10;43.40
15983;DHT22;14442;50.196;8.096;2023-03-21T00:03:22;24.10;43.50
15983;DHT22;14442;50.196;8.096;2023-03-21T00:05:49;24.10;43.50
15983;DHT22;14442;50.196;8.096;2023-03-21T00:08:18;24.10;43.40
15983;DHT22;14442;50.196;8.096;2023-03-21T00:10:46;24.10;43.50
15983;DHT22;14442;50.196;8.096;2023-03-21T00:13:14;24.10;43.40
15983;DHT22;14442;50.196;8.096;2023-03-21T00:15:41;24.10;43.20
15983;DHT22;14442;50.196;8.096;2023-03-21T00:18:15;24.10;43.40
15983;DHT22;14442;50.196;8.096;2023-03-21T00:20:42;24.10;43.40
15983;DHT22;14442;50.196;8.096;2023-03-21T00:23:10;24.10;43.20
15983;DHT22;14442;50.196;8.096;2023-03-21T00:25:37;24.10;43.00
15983;DHT22;14442;50.196;8.096;2023-03-21T00:28:05;24.00;42.80
15983;DHT22;14442;50.196;8.096;2023-03-21T00:30:32;24.00;42.80
15983;DHT22;14442;50.196;8.096;2023-03-21T00:32:59;24.00;42.80
15983;DHT22;14442;50.196;8.096;2023-03-21T00:35:25;23.90;42.80
15983;DHT22;14442;50.196;8.096;2023-03-21T00:37:52;23.90;42.80
15983;DHT22;14442;50.196;8.096;2023-03-21T00:40:19;23.90;42.60
15983;DHT22;14442;50.196;8.096;2023-03-21T00:42:45;23.90;42.70
15983;DHT22;14442;50.196;8.096;2023-03-21T00:45:13;23.80;42.60
15983;DHT22;14442;50.196;8.096;2023-03-21T00:47:41;23.80;42.60
15983;DHT22;14442;50.196;8.096;2023-03-21T00:50:08;23.80;42.50
15983;DHT22;14442;50.196;8.096;2023-03-21T00:52:36;23.80;42.60
15983;DHT22;14442;50.196;8.096;2023-03-21T00:55:03;23.80;42.50
15983;DHT22;14442;50.196;8.096;2023-03-21T00:57:30;23.70;42.40
15983;DHT22;14442;50.196;8.096;2023-03-21T00:59:57;23.70;42.40
15983;DHT22;14442;50.196;8.096;2023-03-21T01:02:25;23.70;42.40
15983;DHT22;14442;50.196;8.096;2023-03-21T01:04:52;23.70;42.50
15983;DHT22;14442;50.196;8.096;2023-03-21T01:07:19;23.70;42.40
15983;DHT22;14442;50.196;8.096;2023-03-21T01:09:46;23.70;42.40
15983;DHT22;14442;50.196;8.096;2023-03-21T01:12:13;23.70;42.40
15983;DHT22;14442;50.196;8.096;2023-03-21T01:14:39;23.70;42.40
15983;DHT22;14442;50.196;8.096;2023-03-21T01:17:06;23.60;42.30
15983;DHT22;14442;50.196;8.096;2023-03-21T01:19:34;23.60;42.30
15983;DHT22;14442;50.196;8.096;2023-03-21T01:22:01;23.60;42.30
15983;DHT22;14442;50.196;8.096;2023-03-21T01:24:27;23.60;42.30
15983;DHT22;14442;50.196;8.096;2023-03-21T01:26:54;23.60;42.40
15983;DHT22;14442;50.196;8.096;2023-03-21T01:29:21;23.60;42.40
15983;DHT22;14442;50.196;8.096;2023-03-21T01:31:48;23.60;42.40
15983;DHT22;14442;50.196;8.096;2023-03-21T01:34:14;23.60;42.40
15983;DHT22;14442;50.196;8.096;2023-03-21T01:36:42;23.60;42.40
15983;DHT22;14442;50.196;8.096;2023-03-21T01:39:09;23.50;42.30
15983;DHT22;14442;50.196;8.096;2023-03-21T01:41:38;23.50;42.30
15983;DHT22;14442;50.196;8.096;2023-03-21T01:44:06;23.50;42.40
15983;DHT22;14442;50.196;8.096;2023-03-21T01:46:38;23.50;42.30
15983;DHT22;14442;50.196;8.096;2023-03-21T01:49:09;23.50;42.40
15983;DHT22;14442;50.196;8.096;2023-03-21T01:51:41;23.50;42.40
15983;DHT22;14442;50.196;8.096;2023-03-21T01:54:12;23.50;42.40
15983;DHT22;14442;50.196;8.096;2023-03-21T01:56:41;23.40;42.30
15983;DHT22;14442;50.196;8.096;2023-03-21T01:59:14;23.40;42.30
15983;DHT22;14442;50.196;8.096;2023-03-21T02:01:44;23.40;42.20
15983;DHT22;14442;50.196;8.096;2023-03-21T02:04:11;23.40;42.40
15983;DHT22;14442;50.196;8.096;2023-03-21T02:06:43;23.40;42.30
15983;DHT22;14442;50.196;8.096;2023-03-21T02:09:18;23.40;42.40
15983;DHT22;14442;50.196;8.096;2023-03-21T02:11:45;23.40;42.40
15983;DHT22;14442;50.196;8.096;2023-03-21T02:14:14;23.40;42.40
15983;DHT22;14442;50.196;8.096;2023-03-21T02:16:48;23.30;42.30
15983;DHT22;14442;50.196;8.096;2023-03-21T02:22:50;23.30;42.40
15983;DHT22;14442;50.196;8.096;2023-03-21T02:25:43;23.30;42.30
15983;DHT22;14442;50.196;8.096;2023-03-21T02:28:15;23.30;42.30
15983;DHT22;14442;50.196;8.096;2023-03-21T02:31:09;23.30;42.40
15983;DHT22;14442;50.196;8.096;2023-03-21T02:34:19;23.30;42.40
15983;DHT22;14442;50.196;8.096;2023-03-21T02:37:02;23.20;42.30
15983;DHT22;14442;50.196;8.096;2023-03-21T02:39:38;23.20;42.30
15983;DHT22;14442;50.196;8.096;2023-03-21T02:42:09;23.20;42.30
15983;DHT22;14442;50.196;8.096;2023-03-21T02:44:41;23.20;42.30
15983;DHT22;14442;50.196;8.096;2023-03-21T02:47:12;23.20;42.40
15983;DHT22;14442;50.196;8.096;2023-03-21T02:49:43;23.20;42.30
15983;DHT22;14442;50.196;8.096;2023-03-21T02:52:17;23.10;42.30
15983;DHT22;14442;50.196;8.096;2023-03-21T02:54:45;23.10;42.30
15983;DHT22;14442;50.196;8.096;2023-03-21T02:57:13;23.10;42.30
15983;DHT22;14442;50.196;8.096;2023-03-21T02:59:41;23.10;42.30
15983;DHT22;14442;50.196;8.096;2023-03-21T03:02:09;23.10;42.30
15983;DHT22;14442;50.196;8.096;2023-03-21T03:04:36;23.20;42.40
15983;DHT22;14442;50.196;8.096;2023-03-21T03:07:22;23.10;42.30
15983;DHT22;14442;50.196;8.096;2023-03-21T03:10:00;23.10;42.30
15983;DHT22;14442;50.196;8.096;2023-03-21T03:12:36;23.10;42.30
15983;DHT22;14442;50.196;8.096;2023-03-21T03:15:11;23.10;42.40
15983;DHT22;14442;50.196;8.096;2023-03-21T03:17:49;23.00;42.30
15983;DHT22;14442;50.196;8.096;2023-03-21T03:20:23;23.00;42.30
15983;DHT22;14442;50.196;8.096;2023-03-21T03:22:58;23.00;42.40
15983;DHT22;14442;50.196;8.096;2023-03-21T03:25:28;23.00;42.30
15983;DHT22;14442;50.196;8.096;2023-03-21T03:27:57;23.00;42.40
15983;DHT22;14442;50.196;8.096;2023-03-21T03:30:25;23.00;42.40
15983;DHT22;14442;50.196;8.096;2023-03-21T03:32:56;22.90;42.30
15983;DHT22;14442;50.196;8.096;2023-03-21T03:35:25;23.00;42.50
15983;DHT22;14442;50.196;8.096;2023-03-21T03:37:55;22.90;42.40
15983;DHT22;14442;50.196;8.096;2023-03-21T03:40:27;22.90;42.30
15983;DHT22;14442;50.196;8.096;2023-03-21T03:42:57;22.90;42.40
15983;DHT22;14442;50.196;8.096;2023-03-21T03:45:29;22.90;42.40
15983;DHT22;14442;50.196;8.096;2023-03-21T03:48:04;22.90;43.00
15983;DHT22;14442;50.196;8.096;2023-03-21T03:50:35;22.90;42.40
15983;DHT22;14442;50.196;8.096;2023-03-21T03:53:07;22.90;42.40
15983;DHT22;14442;50.196;8.096;2023-03-21T03:55:37;22.90;42.40
15983;DHT22;14442;50.196;8.096;2023-03-21T03:58:04;22.90;42.40
15983;DHT22;14442;50.196;8.096;2023-03-21T04:00:31;22.90;42.40
15983;DHT22;14442;50.196;8.096;2023-03-21T04:02:58;22.80;42.30
15983;DHT22;14442;50.196;8.096;2023-03-21T04:05:25;22.80;42.30
15983;DHT22;14442;50.196;8.096;2023-03-21T04:07:52;22.80;42.40
15983;DHT22;14442;50.196;8.096;2023-03-21T04:10:20;22.80;42.30
15983;DHT22;14442;50.196;8.096;2023-03-21T04:12:47;22.80;43.00
15983;DHT22;14442;50.196;8.096;2023-03-21T04:15:14;22.80;42.30
15983;DHT22;14442;50.196;8.096;2023-03-21T04:17:41;22.70;42.20
15983;DHT22;14442;50.196;8.096;2023-03-21T04:20:10;22.70;42.20
15983;DHT22;14442;50.196;8.096;2023-03-21T04:22:36;22.70;42.90
15983;DHT22;14442;50.196;8.096;2023-03-21T04:25:04;22.70;42.20
15983;DHT22;14442;50.196;8.096;2023-03-21T04:27:33;22.70;42.20
15983;DHT22;14442;50.196;8.096;2023-03-21T04:29:59;22.70;42.20
15983;DHT22;14442;50.196;8.096;2023-03-21T04:32:26;22.70;42.20
15983;DHT22;14442;50.196;8.096;2023-03-21T04:34:53;22.70;42.10
15983;DHT22;14442;50.196;8.096;2023-03-21T04:37:21;22.70;42.20
15983;DHT22;14442;50.196;8.096;2023-03-21T04:39:49;22.60;42.10
15983;DHT22;14442;50.196;8.096;2023-03-21T04:42:17;22.60;42.20
15983;DHT22;14442;50.196;8.096;2023-03-21T04:44:45;22.60;42.10
15983;DHT22;14442;50.196;8.096;2023-03-21T04:47:12;22.60;42.10
15983;DHT22;14442;50.196;8.096;2023-03-21T04:49:40;22.60;42.10
15983;DHT22;14442;50.196;8.096;2023-03-21T04:52:07;22.60;42.10
15983;DHT22;14442;50.196;8.096;2023-03-21T04:54:33;22.60;42.10
15983;DHT22;14442;50.196;8.096;2023-03-21T04:57:01;22.60;42.10
15983;DHT22;14442;50.196;8.096;2023-03-21T04:59:29;22.60;42.10
15983;DHT22;14442;50.196;8.096;2023-03-21T05:01:57;22.60;42.20
15983;DHT22;14442;50.196;8.096;2023-03-21T05:04:24;22.60;42.20
15983;DHT22;14442;50.196;8.096;2023-03-21T05:06:52;22.50;42.10
15983;DHT22;14442;50.196;8.096;2023-03-21T05:09:19;22.50;42.10
15983;DHT22;14442;50.196;8.096;2023-03-21T05:11:46;22.50;42.10
15983;DHT22;14442;50.196;8.096;2023-03-21T05:14:15;22.50;42.10
15983;DHT22;14442;50.196;8.096;2023-03-21T05:16:43;22.40;42.10
15983;DHT22;14442;50.196;8.096;2023-03-21T05:19:14;22.50;42.10
15983;DHT22;14442;50.196;8.096;2023-03-21T05:21:42;22.50;42.10
15983;DHT22;14442;50.196;8.096;2023-03-21T05:24:11;22.50;42.10
15983;DHT22;14442;50.196;8.096;2023-03-21T05:26:39;22.50;42.10
15983;DHT22;14442;50.196;8.096;2023-03-21T05:29:07;22.50;42.10
15983;DHT22;14442;50.196;8.096;2023-03-21T05:31:34;22.50;42.10
15983;DHT22;14442;50.196;8.096;2023-03-21T05:34:01;22.50;42.10
15983;DHT22;14442;50.196;8.096;2023-03-21T05:36:29;22.40;42.10
15983;DHT22;14442;50.196;8.096;2023-03-21T05:38:58;22.40;42.10
15983;DHT22;14442;50.196;8.096;2023-03-21T05:41:26;22.40;42.10
15983;DHT22;14442;50.196;8.096;2023-03-21T05:43:52;22.40;42.90
15983;DHT22;14442;50.196;8.096;2023-03-21T05:46:19;22.40;42.20
15983;DHT22;14442;50.196;8.096;2023-03-21T05:48:46;22.40;42.20
15983;DHT22;14442;50.196;8.096;2023-03-21T05:51:12;22.40;42.20
15983;DHT22;14442;50.196;8.096;2023-03-21T05:53:41;22.40;42.20
15983;DHT22;14442;50.196;8.096;2023-03-21T05:56:08;22.40;42.20
15983;DHT22;14442;50.196;8.096;2023-03-21T05:58:35;22.40;42.20
15983;DHT22;14442;50.196;8.096;2023-03-21T06:01:02;22.30;42.10
15983;DHT22;14442;50.196;8.096;2023-03-21T06:03:28;22.40;42.20
15983;DHT22;14442;50.196;8.096;2023-03-21T06:05:55;22.30;42.10
15983;DHT22;14442;50.196;8.096;2023-03-21T06:08:22;22.30;42.20
15983;DHT22;14442;50.196;8.096;2023-03-21T06:10:50;22.40;42.20
15983;DHT22;14442;50.196;8.096;2023-03-21T06:13:17;22.30;42.20
15983;DHT22;14442;50.196;8.096;2023-03-21T06:15:43;22.30;42.20
15983;DHT22;14442;50.196;8.096;2023-03-21T06:18:10;22.30;42.20
15983;DHT22;14442;50.196;8.096;2023-03-21T06:20:37;22.30;42.20
15983;DHT22;14442;50.196;8.096;2023-03-21T06:23:03;22.30;42.20
15983;DHT22;14442;50.196;8.096;2023-03-21T06:25:30;22.30;42.20
15983;DHT22;14442;50.196;8.096;2023-03-21T06:27:58;22.30;42.20
15983;DHT22;14442;50.196;8.096;2023-03-21T06:30:25;22.30;42.20
15983;DHT22;14442;50.196;8.096;2023-03-21T06:32:51;22.30;42.20
15983;DHT22;14442;50.196;8.096;2023-03-21T06:35:19;22.20;42.10
15983;DHT22;14442;50.196;8.096;2023-03-21T06:37:46;22.20;42.20
15983;DHT22;14442;50.196;8.096;2023-03-21T06:40:13;22.20;42.20
15983;DHT22;14442;50.196;8.096;2023-03-21T06:42:40;22.20;42.20
15983;DHT22;14442;50.196;8.096;2023-03-21T06:45:09;22.20;42.10
15983;DHT22;14442;50.196;8.096;2023-03-21T06:47:36;22.20;42.10
15983;DHT22;14442;50.196;8.096;2023-03-21T06:50:03;22.20;42.10
15983;DHT22;14442;50.196;8.096;2023-03-21T06:52:31;22.20;42.10
15983;DHT22;14442;50.196;8.096;2023-03-21T06:54:58;22.20;42.20
15983;DHT22;14442;50.196;8.096;2023-03-21T06:57:24;22.20;42.20
15983;DHT22;14442;50.196;8.096;2023-03-21T06:59:51;22.10;42.10
15983;DHT22;14442;50.196;8.096;2023-03-21T07:02:19;22.10;42.10
15983;DHT22;14442;50.196;8.096;2023-03-21T07:04:45;22.20;42.30
15983;DHT22;14442;50.196;8.096;2023-03-21T07:07:12;22.20;42.30
15983;DHT22;14442;50.196;8.096;2023-03-21T07:09:40;22.10;42.20
15983;DHT22;14442;50.196;8.096;2023-03-21T07:12:07;22.10;42.20
15983;DHT22;14442;50.196;8.096;2023-03-21T07:14:34;22.20;42.30
15983;DHT22;14442;50.196;8.096;2023-03-21T07:17:01;22.10;42.20
15983;DHT22;14442;50.196;8.096;2023-03-21T07:19:29;22.10;42.20
15983;DHT22;14442;50.196;8.096;2023-03-21T07:21:55;22.10;42.20
15983;DHT22;14442;50.196;8.096;2023-03-21T07:24:22;22.10;42.20
15983;DHT22;14442;50.196;8.096;2023-03-21T07:26:49;22.10;42.30
15983;DHT22;14442;50.196;8.096;2023-03-21T07:29:15;22.10;42.50
15983;DHT22;14442;50.196;8.096;2023-03-21T07:31:45;22.10;42.50
15983;DHT22;14442;50.196;8.096;2023-03-21T07:34:12;22.10;42.60
15983;DHT22;14442;50.196;8.096;2023-03-21T07:36:41;22.20;43.00
15983;DHT22;14442;50.196;8.096;2023-03-21T07:39:08;22.20;42.80
15983;DHT22;14442;50.196;8.096;2023-03-21T07:41:35;22.20;42.80
15983;DHT22;14442;50.196;8.096;2023-03-21T07:44:01;22.40;43.10
15983;DHT22;14442;50.196;8.096;2023-03-21T07:46:28;22.50;43.10
15983;DHT22;14442;50.196;8.096;2023-03-21T07:48:55;22.50;43.60
15983;DHT22;14442;50.196;8.096;2023-03-21T07:51:21;22.50;43.60
15983;DHT22;14442;50.196;8.096;2023-03-21T07:53:49;22.60;43.90
15983;DHT22;14442;50.196;8.096;2023-03-21T07:56:16;22.50;44.00
15983;DHT22;14442;50.196;8.096;2023-03-21T07:58:43;22.50;44.00
15983;DHT22;14442;50.196;8.096;2023-03-21T08:01:09;22.50;43.90
15983;DHT22;14442;50.196;8.096;2023-03-21T08:03:36;22.50;43.80
15983;DHT22;14442;50.196;8.096;2023-03-21T08:06:04;22.50;43.60
15983;DHT22;14442;50.196;8.096;2023-03-21T08:08:31;22.50;43.60
15983;DHT22;14442;50.196;8.096;2023-03-21T08:10:59;22.50;43.90
15983;DHT22;14442;50.196;8.096;2023-03-21T08:13:29;22.50;43.90
15983;DHT22;14442;50.196;8.096;2023-03-21T08:15:55;22.50;43.90
15983;DHT22;14442;50.196;8.096;2023-03-21T08:18:22;22.50;44.80
15983;DHT22;14442;50.196;8.096;2023-03-21T08:20:51;22.50;43.90
15983;DHT22;14442;50.196;8.096;2023-03-21T08:23:18;22.50;44.10
15983;DHT22;14442;50.196;8.096;2023-03-21T08:25:45;22.50;44.10
15983;DHT22;14442;50.196;8.096;2023-03-21T08:28:13;22.50;44.10
15983;DHT22;14442;50.196;8.096;2023-03-21T08:30:40;22.50;44.10
15983;DHT22;14442;50.196;8.096;2023-03-21T08:33:06;22.60;44.50
15983;DHT22;14442;50.196;8.096;2023-03-21T08:35:33;22.50;45.00
15983;DHT22;14442;50.196;8.096;2023-03-21T08:38:01;22.50;44.90
15983;DHT22;14442;50.196;8.096;2023-03-21T08:40:28;22.50;45.00
15983;DHT22;14442;50.196;8.096;2023-03-21T08:42:54;22.50;45.10
15983;DHT22;14442;50.196;8.096;2023-03-21T08:45:23;22.50;45.30
15983;DHT22;14442;50.196;8.096;2023-03-21T08:47:50;22.50;45.30
15983;DHT22;14442;50.196;8.096;2023-03-21T08:50:18;22.50;45.40
15983;DHT22;14442;50.196;8.096;2023-03-21T08:52:45;22.50;45.50
15983;DHT22;14442;50.196;8.096;2023-03-21T08:55:13;22.50;45.40
15983;DHT22;14442;50.196;8.096;2023-03-21T08:57:40;22.50;45.50
15983;DHT22;14442;50.196;8.096;2023-03-21T09:00:09;22.40;45.40
15983;DHT22;14442;50.196;8.096;2023-03-21T09:02:40;22.50;45.40
15983;DHT22;14442;50.196;8.096;2023-03-21T09:05:08;22.40;45.30
15983;DHT22;14442;50.196;8.096;2023-03-21T09:07:36;22.40;45.00
15983;DHT22;14442;50.196;8.096;2023-03-21T09:10:05;22.40;44.90
15983;DHT22;14442;50.196;8.096;2023-03-21T09:12:32;22.50;45.00
15983;DHT22;14442;50.196;8.096;2023-03-21T09:14:59;22.50;45.10
15983;DHT22;14442;50.196;8.096;2023-03-21T09:17:27;22.50;45.10
15983;DHT22;14442;50.196;8.096;2023-03-21T09:19:55;22.50;45.20
15983;DHT22;14442;50.196;8.096;2023-03-21T09:22:23;22.50;45.20
15983;DHT22;14442;50.196;8.096;2023-03-21T09:24:51;22.50;45.20
15983;DHT22;14442;50.196;8.096;2023-03-21T09:27:19;22.50;45.30
15983;DHT22;14442;50.196;8.096;2023-03-21T09:29:47;22.50;45.00
15983;DHT22;14442;50.196;8.096;2023-03-21T09:32:14;22.40;44.60
15983;DHT22;14442;50.196;8.096;2023-03-21T09:34:42;22.50;44.60
15983;DHT22;14442;50.196;8.096;2023-03-21T09:37:11;22.50;44.60
15983;DHT22;14442;50.196;8.096;2023-03-21T09:39:38;22.60;44.90
15983;DHT22;14442;50.196;8.096;2023-03-21T09:42:16;22.60;45.10
15983;DHT22;14442;50.196;8.096;2023-03-21T09:45:00;22.50;45.20
15983;DHT22;14442;50.196;8.096;2023-03-21T09:47:30;22.50;45.40
15983;DHT22;14442;50.196;8.096;2023-03-21T09:50:05;22.50;45.60
15983;DHT22;14442;50.196;8.096;2023-03-21T09:52:42;22.60;45.50
15983;DHT22;14442;50.196;8.096;2023-03-21T09:55:16;22.60;45.80
15983;DHT22;14442;50.196;8.096;2023-03-21T09:57:46;22.50;45.70
15983;DHT22;14442;50.196;8.096;2023-03-21T10:00:20;22.50;45.60
15983;DHT22;14442;50.196;8.096;2023-03-21T10:02:50;22.60;45.60
15983;DHT22;14442;50.196;8.096;2023-03-21T10:05:19;22.50;45.20
15983;DHT22;14442;50.196;8.096;2023-03-21T10:07:51;22.50;45.10
15983;DHT22;14442;50.196;8.096;2023-03-21T10:10:24;22.50;45.20
15983;DHT22;14442;50.196;8.096;2023-03-21T10:12:54;22.50;45.30
15983;DHT22;14442;50.196;8.096;2023-03-21T10:15:23;22.50;45.40
15983;DHT22;14442;50.196;8.096;2023-03-21T10:17:55;22.60;45.60
15983;DHT22;14442;50.196;8.096;2023-03-21T10:20:24;22.50;45.50
15983;DHT22;14442;50.196;8.096;2023-03-21T10:22:54;22.60;45.60
15983;DHT22;14442;50.196;8.096;2023-03-21T10:25:25;22.60;45.60
15983;DHT22;14442;50.196;8.096;2023-03-21T10:27:53;22.50;45.60
15983;DHT22;14442;50.196;8.096;2023-03-21T10:30:27;22.60;45.70
15983;DHT22;14442;50.196;8.096;2023-03-21T10:32:56;22.60;45.50
15983;DHT22;14442;50.196;8.096;2023-03-21T10:35:26;22.60;45.50
15983;DHT22;14442;50.196;8.096;2023-03-21T10:37:55;22.60;45.60
15983;DHT22;14442;50.196;8.096;2023-03-21T10:40:22;22.60;45.40
15983;DHT22;14442;50.196;8.096;2023-03-21T10:42:49;22.60;45.30
15983;DHT22;14442;50.196;8.096;2023-03-21T10:45:17;22.60;45.30
15983;DHT22;14442;50.196;8.096;2023-03-21T10:47:47;22.60;45.30
15983;DHT22;14442;50.196;8.096;2023-03-21T10:50:16;22.60;45.40
15983;DHT22;14442;50.196;8.096;2023-03-21T10:52:46;22.60;45.50
15983;DHT22;14442;50.196;8.096;2023-03-21T10:55:21;22.60;45.40
15983;DHT22;14442;50.196;8.096;2023-03-21T10:57:54;22.60;45.40
15983;DHT22;14442;50.196;8.096;2023-03-21T11:00:26;22.60;45.30
15983;DHT22;14442;50.196;8.096;2023-03-21T11:02:54;22.60;45.30
15983;DHT22;14442;50.196;8.096;2023-03-21T11:05:25;22.60;45.40
15983;DHT22;14442;50.196;8.096;2023-03-21T11:07:59;22.60;45.20
15983;DHT22;14442;50.196;8.096;2023-03-21T11:10:31;22.60;45.40
15983;DHT22;14442;50.196;8.096;2023-03-21T11:13:03;22.60;45.40
15983;DHT22;14442;50.196;8.096;2023-03-21T11:15:32;22.60;45.30
15983;DHT22;14442;50.196;8.096;2023-03-21T11:18:13;22.60;45.40
15983;DHT22;14442;50.196;8.096;2023-03-21T11:20:49;22.60;45.40
15983;DHT22;14442;50.196;8.096;2023-03-21T11:23:16;22.60;45.40
15983;DHT22;14442;50.196;8.096;2023-03-21T11:25:47;22.50;45.10
15983;DHT22;14442;50.196;8.096;2023-03-21T11:28:16;22.50;44.90
15983;DHT22;14442;50.196;8.096;2023-03-21T11:30:52;22.60;45.10
15983;DHT22;14442;50.196;8.096;2023-03-21T11:33:21;22.60;45.10
15983;DHT22;14442;50.196;8.096;2023-03-21T11:36:06;22.60;45.20
15983;DHT22;14442;50.196;8.096;2023-03-21T11:38:51;22.60;45.10
15983;DHT22;14442;50.196;8.096;2023-03-21T11:41:23;22.60;45.20
15983;DHT22;14442;50.196;8.096;2023-03-21T11:43:52;22.50;44.80
15983;DHT22;14442;50.196;8.096;2023-03-21T11:46:22;22.50;44.90
15983;DHT22;14442;50.196;8.096;2023-03-21T11:48:50;22.50;44.80
15983;DHT22;14442;50.196;8.096;2023-03-21T11:51:23;22.40;44.70
15983;DHT22;14442;50.196;8.096;2023-03-21T11:53:59;22.40;44.80
15983;DHT22;14442;50.196;8.096;2023-03-21T11:56:35;22.40;44.80
15983;DHT22;14442;50.196;8.096;2023-03-21T11:59:12;22.40;44.80
15983;DHT22;14442;50.196;8.096;2023-03-21T12:04:39;22.40;44.70
15983;DHT22;14442;50.196;8.096;2023-03-21T12:07:19;22.40;44.60
15983;DHT22;14442;50.196;8.096;2023-03-21T12:09:54;22.40;44.50
15983;DHT22;14442;50.196;8.096;2023-03-21T12:12:32;22.40;44.50
15983;DHT22;14442;50.196;8.096;2023-03-21T12:15:07;22.40;44.60
15983;DHT22;14442;50.196;8.096;2023-03-21T12:17:45;22.40;44.50
15983;DHT22;14442;50.196;8.096;2023-03-21T12:20:27;22.40;44.70
15983;DHT22;14442;50.196;8.096;2023-03-21T12:23:07;22.40;44.50
15983;DHT22;14442;50.196;8.096;2023-03-21T12:25:43;22.40;44.50
15983;DHT22;14442;50.196;8.096;2023-03-21T12:28:21;22.40;44.60
15983;DHT22;14442;50.196;8.096;2023-03-21T12:30:57;22.40;44.60
15983;DHT22;14442;50.196;8.096;2023-03-21T12:33:39;22.40;44.60
15983;DHT22;14442;50.196;8.096;2023-03-21T12:36:18;22.40;44.60
15983;DHT22;14442;50.196;8.096;2023-03-21T12:38:57;22.40;44.60
15983;DHT22;14442;50.196;8.096;2023-03-21T12:41:33;22.40;44.60
15983;DHT22;14442;50.196;8.096;2023-03-21T12:44:03;22.40;44.50
15983;DHT22;14442;50.196;8.096;2023-03-21T12:46:33;22.40;44.60
15983;DHT22;14442;50.196;8.096;2023-03-21T12:49:05;22.40;44.70
15983;DHT22;14442;50.196;8.096;2023-03-21T12:51:35;22.40;44.60
15983;DHT22;14442;50.196;8.096;2023-03-21T12:54:10;22.40;44.70
15983;DHT22;14442;50.196;8.096;2023-03-21T12:56:44;22.40;44.60
15983;DHT22;14442;50.196;8.096;2023-03-21T12:59:22;22.30;44.60
15983;DHT22;14442;50.196;8.096;2023-03-21T13:01:53;22.40;44.70
15983;DHT22;14442;50.196;8.096;2023-03-21T13:04:41;22.40;44.60
15983;DHT22;14442;50.196;8.096;2023-03-21T13:07:12;22.40;44.60
15983;DHT22;14442;50.196;8.096;2023-03-21T13:09:41;22.40;44.70
15983;DHT22;14442;50.196;8.096;2023-03-21T13:12:23;22.40;44.70
15983;DHT22;14442;50.196;8.096;2023-03-21T13:15:00;22.40;44.60
15983;DHT22;14442;50.196;8.096;2023-03-21T13:17:33;22.40;44.50
15983;DHT22;14442;50.196;8.096;2023-03-21T13:20:07;22.40;44.60
15983;DHT22;14442;50.196;8.096;2023-03-21T13:22:38;22.40;44.60
15983;DHT22;14442;50.196;8.096;2023-03-21T13:25:14;22.40;44.60
15983;DHT22;14442;50.196;8.096;2023-03-21T13:27:42;22.50;44.80
15983;DHT22;14442;50.196;8.096;2023-03-21T13:30:20;22.40;44.60
15983;DHT22;14442;50.196;8.096;2023-03-21T13:32:49;22.40;44.60
15983;DHT22;14442;50.196;8.096;2023-03-21T13:35:19;22.40;44.40
15983;DHT22;14442;50.196;8.096;2023-03-21T13:37:55;22.40;44.40
15983;DHT22;14442;50.196;8.096;2023-03-21T13:40:24;22.40;44.30
15983;DHT22;14442;50.196;8.096;2023-03-21T13:42:53;22.40;44.20
15983;DHT22;14442;50.196;8.096;2023-03-21T13:45:30;22.40;44.10
15983;DHT22;14442;50.196;8.096;2023-03-21T13:47:58;22.40;44.50
15983;DHT22;14442;50.196;8.096;2023-03-21T13:50:35;22.40;44.90
15983;DHT22;14442;50.196;8.096;2023-03-21T13:53:23;22.40;45.10
15983;DHT22;14442;50.196;8.096;2023-03-21T13:56:20;22.40;45.10
15983;DHT22;14442;50.196;8.096;2023-03-21T13:58:57;22.40;45.10
15983;DHT22;14442;50.196;8.096;2023-03-21T14:01:32;22.40;45.10
15983;DHT22;14442;50.196;8.096;2023-03-21T14:04:03;22.40;45.10
15983;DHT22;14442;50.196;8.096;2023-03-21T14:06:35;22.40;45.20
15983;DHT22;14442;50.196;8.096;2023-03-21T14:09:04;22.40;45.50
15983;DHT22;14442;50.196;8.096;2023-03-21T14:11:32;22.40;45.30
15983;DHT22;14442;50.196;8.096;2023-03-21T14:14:00;22.30;45.10
15983;DHT22;14442;50.196;8.096;2023-03-21T14:16:29;22.30;45.00
15983;DHT22;14442;50.196;8.096;2023-03-21T14:19:00;22.30;45.10
15983;DHT22;14442;50.196;8.096;2023-03-21T14:21:29;22.30;45.30
15983;DHT22;14442;50.196;8.096;2023-03-21T14:23:58;22.30;45.10
15983;DHT22;14442;50.196;8.096;2023-03-21T14:26:27;22.40;45.20
15983;DHT22;14442;50.196;8.096;2023-03-21T14:28:55;22.40;45.00
15983;DHT22;14442;50.196;8.096;2023-03-21T14:31:22;22.40;45.00
15983;DHT22;14442;50.196;8.096;2023-03-21T14:33:51;22.40;45.10
15983;DHT22;14442;50.196;8.096;2023-03-21T14:36:22;22.40;45.00
15983;DHT22;14442;50.196;8.096;2023-03-21T14:39:02;22.40;45.20
15983;DHT22;14442;50.196;8.096;2023-03-21T14:41:30;22.40;45.10
15983;DHT22;14442;50.196;8.096;2023-03-21T14:44:02;22.40;45.10
15983;DHT22;14442;50.196;8.096;2023-03-21T14:46:36;22.40;45.20
15983;DHT22;14442;50.196;8.096;2023-03-21T14:49:12;22.30;45.20
15983;DHT22;14442;50.196;8.096;2023-03-21T14:51:39;22.30;45.20
15983;DHT22;14442;50.196;8.096;2023-03-21T14:54:10;22.30;45.30
15983;DHT22;14442;50.196;8.096;2023-03-21T14:56:38;22.30;45.50
15983;DHT22;14442;50.196;8.096;2023-03-21T14:59:05;22.30;45.40
15983;DHT22;14442;50.196;8.096;2023-03-21T15:01:33;22.30;45.30
15983;DHT22;14442;50.196;8.096;2023-03-21T15:04:03;22.30;45.30
15983;DHT22;14442;50.196;8.096;2023-03-21T15:06:32;22.30;45.30
15983;DHT22;14442;50.196;8.096;2023-03-21T15:09:01;22.30;45.30
15983;DHT22;14442;50.196;8.096;2023-03-21T15:11:29;22.30;45.50
15983;DHT22;14442;50.196;8.096;2023-03-21T15:13:59;22.30;45.50
15983;DHT22;14442;50.196;8.096;2023-03-21T15:16:26;22.30;45.30
15983;DHT22;14442;50.196;8.096;2023-03-21T15:18:53;22.40;45.40
15983;DHT22;14442;50.196;8.096;2023-03-21T15:21:22;22.40;45.40
15983;DHT22;14442;50.196;8.096;2023-03-21T15:23:55;22.30;45.60
15983;DHT22;14442;50.196;8.096;2023-03-21T15:26:24;22.30;45.50
15983;DHT22;14442;50.196;8.096;2023-03-21T15:28:56;22.30;45.40
15983;DHT22;14442;50.196;8.096;2023-03-21T15:31:27;22.30;45.50
15983;DHT22;14442;50.196;8.096;2023-03-21T15:33:55;22.30;45.40
15983;DHT22;14442;50.196;8.096;2023-03-21T15:36:24;22.30;45.40
15983;DHT22;14442;50.196;8.096;2023-03-21T15:38:54;22.30;45.30
15983;DHT22;14442;50.196;8.096;2023-03-21T15:41:28;22.30;45.30
15983;DHT22;14442;50.196;8.096;2023-03-21T15:44:02;22.30;45.30
15983;DHT22;14442;50.196;8.096;2023-03-21T15:46:33;22.30;45.40
15983;DHT22;14442;50.196;8.096;2023-03-21T15:49:09;22.30;45.60
15983;DHT22;14442;50.196;8.096;2023-03-21T15:51:36;22.30;45.40
15983;DHT22;14442;50.196;8.096;2023-03-21T15:54:04;22.30;45.60